Time;durP1;ratioP1;P1;durP2;ratioP2;P2;SDS_P1;SDS_P2;PMS_P1;PMS_P2;Temp;Humidity;BMP_temperature;BMP_pressure;BME280_temperature;BME280_humidity;BME280_pressure;Samples;Min_cycle;Max_cycle;Signal;HPM_P1;HPM_P2
2022/05/01 00:00:59;;;;;;;;;;;12.90;99.90;;;;;;5073915;28;19978;-78
2022/05/01 00:03:34;;;;;;;;;;;12.70;99.90;;;;;;5073433;28;19995;-79
2022/05/01 00:06:04;;;;;;;;;;;12.60;99.90;;;;;;5074155;28;19911;-78
2022/05/01 00:08:31;;;;;;;;;;;12.50;99.90;;;;;;5073811;28;19911;-77
2022/05/01 00:10:57;;;;;;;;;;;12.40;99.90;;;;;;5074200;28;20378;-78
2022/05/01 00:13:23;;;;;;;;;;;12.40;99.90;;;;;;5073946;28;19904;-77
2022/05/01 00:15:49;;;;;;;;;;;12.50;99.90;;;;;;5073683;28;20318;-77
2022/05/01 00:18:15;;;;;;;;;;;12.40;99.90;;;;;;5073928;28;20042;-77
2022/05/01 00:20:40;;;;;;;;;;;12.50;99.90;;;;;;5073629;28;19908;-78
2022/05/01 00:23:06;;;;;;;;;;;12.60;99.90;;;;;;5073613;28;20280;-77
2022/05/01 00:25:32;;;;;;;;;;;12.60;99.90;;;;;;5055675;28;19987;-78
2022/05/01 00:27:58;;;;;;;;;;;12.60;99.90;;;;;;5073784;28;19908;-78
2022/05/01 00:30:26;;;;;;;;;;;12.30;99.90;;;;;;5073594;28;19904;-78
2022/05/01 00:38:20;;;;;;;;;;;12.00;99.90;;;;;;5073337;28;19923;-77
2022/05/01 00:40:46;;;;;;;;;;;11.90;99.90;;;;;;5073429;28;19909;-77
2022/05/01 00:43:11;;;;;;;;;;;11.90;99.90;;;;;;5073492;28;20314;-77
2022/05/01 00:45:37;;;;;;;;;;;12.00;99.90;;;;;;5073438;28;20269;-78
2022/05/01 00:48:03;;;;;;;;;;;12.10;99.90;;;;;;5073577;28;20007;-77
2022/05/01 00:50:28;;;;;;;;;;;12.10;99.90;;;;;;5073413;28;20006;-79
2022/05/01 00:52:54;;;;;;;;;;;12.10;99.90;;;;;;5073400;28;20341;-79
2022/05/01 00:55:20;;;;;;;;;;;11.90;99.90;;;;;;5076319;28;19911;-79
2022/05/01 00:57:49;;;;;;;;;;;11.90;99.90;;;;;;5059316;28;19911;-78
2022/05/01 01:00:16;;;;;;;;;;;11.90;99.90;;;;;;5077231;28;20066;-78
2022/05/01 01:02:42;;;;;;;;;;;11.90;99.90;;;;;;5077241;28;19991;-77
2022/05/01 01:05:08;;;;;;;;;;;12.00;99.90;;;;;;5059189;28;19916;-78
2022/05/01 01:07:34;;;;;;;;;;;12.10;99.90;;;;;;5077146;28;19994;-79
2022/05/01 01:10:00;;;;;;;;;;;12.10;99.90;;;;;;5076994;28;19905;-80
2022/05/01 01:15:10;;;;;;;;;;;12.10;99.90;;;;;;5076994;28;20280;-79
2022/05/01 01:17:37;;;;;;;;;;;12.00;99.90;;;;;;5076937;28;19905;-79
2022/05/01 01:20:07;;;;;;;;;;;12.00;99.90;;;;;;5076796;28;19909;-80
2022/05/01 01:22:33;;;;;;;;;;;12.00;99.90;;;;;;5076961;28;20284;-77
2022/05/01 01:24:58;;;;;;;;;;;12.00;99.90;;;;;;5076750;28;19905;-78
2022/05/01 01:27:24;;;;;;;;;;;12.10;99.90;;;;;;5076765;28;20357;-78
2022/05/01 01:32:35;;;;;;;;;;;12.20;99.90;;;;;;5076793;28;20383;-78
2022/05/01 01:35:02;;;;;;;;;;;12.30;99.90;;;;;;5058647;28;19905;-79
2022/05/01 01:37:28;;;;;;;;;;;12.30;99.90;;;;;;5076491;28;19920;-77
2022/05/01 01:39:54;;;;;;;;;;;12.30;99.90;;;;;;5076464;28;19923;-79
2022/05/01 01:42:20;;;;;;;;;;;12.30;99.90;;;;;;5076445;28;19905;-78
2022/05/01 01:44:46;;;;;;;;;;;12.30;99.90;;;;;;5076488;28;19991;-80
2022/05/01 01:47:13;;;;;;;;;;;12.30;99.90;;;;;;5076481;28;19944;-77
2022/05/01 01:49:39;;;;;;;;;;;12.30;99.90;;;;;;5076332;28;19909;-79
2022/05/01 01:52:05;;;;;;;;;;;12.60;99.90;;;;;;5076311;28;19904;-79
2022/05/01 01:54:30;;;;;;;;;;;12.60;99.90;;;;;;5076245;28;19943;-79
2022/05/01 01:56:56;;;;;;;;;;;12.60;99.90;;;;;;5076228;28;19904;-76
2022/05/01 01:59:22;;;;;;;;;;;12.60;99.90;;;;;;5058485;28;19909;-79
2022/05/01 02:01:48;;;;;;;;;;;12.50;99.90;;;;;;5076571;28;19912;-77
2022/05/01 02:04:14;;;;;;;;;;;12.50;99.90;;;;;;5076242;28;19954;-79
2022/05/01 02:06:39;;;;;;;;;;;12.40;99.90;;;;;;5075815;28;20326;-78
2022/05/01 02:09:07;;;;;;;;;;;12.50;99.90;;;;;;5076246;28;19904;-78
2022/05/01 02:11:34;;;;;;;;;;;12.60;99.90;;;;;;5057934;28;19904;-78
2022/05/01 02:13:59;;;;;;;;;;;12.50;99.90;;;;;;5075992;28;19911;-78
2022/05/01 02:16:25;;;;;;;;;;;12.50;99.90;;;;;;5076230;28;19904;-78
2022/05/01 02:18:51;;;;;;;;;;;12.50;99.90;;;;;;5057805;28;19999;-77
2022/05/01 02:21:35;;;;;;;;;;;12.50;99.90;;;;;;5057802;28;20046;-77
2022/05/01 02:24:08;;;;;;;;;;;12.60;99.90;;;;;;5075965;28;19904;-78
2022/05/01 02:26:35;;;;;;;;;;;12.50;99.90;;;;;;5075649;28;19905;-78
2022/05/01 02:29:02;;;;;;;;;;;12.50;99.90;;;;;;5075801;28;19911;-77
2022/05/01 02:31:28;;;;;;;;;;;12.40;99.90;;;;;;5075617;28;19912;-78
2022/05/01 02:33:54;;;;;;;;;;;12.30;99.90;;;;;;5075554;28;19913;-78
2022/05/01 02:36:19;;;;;;;;;;;12.30;99.90;;;;;;5075563;28;19904;-78
2022/05/01 02:38:47;;;;;;;;;;;12.30;99.90;;;;;;5075717;28;19900;-77
2022/05/01 02:41:13;;;;;;;;;;;12.20;99.90;;;;;;5075377;28;19912;-79
2022/05/01 02:43:38;;;;;;;;;;;12.20;99.90;;;;;;5075358;28;19904;-76
2022/05/01 02:46:04;;;;;;;;;;;12.10;99.90;;;;;;5075320;28;19904;-79
2022/05/01 02:48:30;;;;;;;;;;;12.10;99.90;;;;;;5075703;28;20470;-78
2022/05/01 02:50:55;;;;;;;;;;;12.10;99.90;;;;;;5075251;28;19911;-78
2022/05/01 02:53:21;;;;;;;;;;;12.20;99.90;;;;;;5075213;28;20376;-77
2022/05/01 02:55:47;;;;;;;;;;;12.30;99.90;;;;;;5075215;28;20002;-78
2022/05/01 02:58:12;;;;;;;;;;;12.10;99.90;;;;;;5057067;28;19904;-78
2022/05/01 03:00:38;;;;;;;;;;;12.10;99.90;;;;;;5074910;28;20011;-79
2022/05/01 03:03:03;;;;;;;;;;;12.00;99.90;;;;;;5074984;28;19935;-79
2022/05/01 03:05:30;;;;;;;;;;;11.90;99.90;;;;;;5074955;28;19905;-79
2022/05/01 03:07:56;;;;;;;;;;;12.00;99.90;;;;;;5074846;28;20373;-78
2022/05/01 03:10:24;;;;;;;;;;;12.20;99.90;;;;;;5056847;28;19912;-77
2022/05/01 03:12:50;;;;;;;;;;;12.10;99.90;;;;;;5056823;28;20264;-78
2022/05/01 03:15:16;;;;;;;;;;;12.10;99.90;;;;;;5074758;28;19904;-77
2022/05/01 03:23:09;;;;;;;;;;;11.90;99.90;;;;;;5074428;28;19954;-78
2022/05/01 03:25:35;;;;;;;;;;;12.00;99.90;;;;;;5074495;28;19936;-78
2022/05/01 03:28:01;;;;;;;;;;;12.00;99.90;;;;;;5056529;28;20371;-77
2022/05/01 03:30:27;;;;;;;;;;;11.90;99.90;;;;;;5074420;28;19905;-78
2022/05/01 03:32:53;;;;;;;;;;;11.80;99.90;;;;;;5056459;28;19947;-77
2022/05/01 03:35:19;;;;;;;;;;;11.80;99.90;;;;;;5074287;28;19905;-78
2022/05/01 03:37:44;;;;;;;;;;;11.70;99.90;;;;;;5074118;28;19916;-77
2022/05/01 03:40:12;;;;;;;;;;;11.60;99.90;;;;;;5074155;28;20377;-78
2022/05/01 03:42:37;;;;;;;;;;;11.50;99.90;;;;;;5074186;28;19913;-79
2022/05/01 03:45:03;;;;;;;;;;;11.50;99.90;;;;;;5056244;28;19904;-79
2022/05/01 03:47:29;;;;;;;;;;;11.60;99.90;;;;;;5056129;28;19905;-78
2022/05/01 03:49:54;;;;;;;;;;;11.70;99.90;;;;;;5074417;28;19951;-80
2022/05/01 03:52:20;;;;;;;;;;;11.70;99.90;;;;;;5074021;28;19904;-78
2022/05/01 03:54:45;;;;;;;;;;;11.90;99.90;;;;;;5056044;28;19904;-78
2022/05/01 03:57:11;;;;;;;;;;;11.80;99.90;;;;;;5073966;28;19911;-79
2022/05/01 03:59:37;;;;;;;;;;;11.80;99.90;;;;;;5055854;28;19954;-77
2022/05/01 04:02:02;;;;;;;;;;;11.80;99.90;;;;;;5073892;28;19911;-78
2022/05/01 04:04:28;;;;;;;;;;;11.70;99.90;;;;;;5055924;28;20346;-79
2022/05/01 04:06:53;;;;;;;;;;;11.90;99.90;;;;;;5073904;28;19904;-78
2022/05/01 04:09:21;;;;;;;;;;;11.90;99.90;;;;;;5073929;28;20023;-78
2022/05/01 04:11:46;;;;;;;;;;;11.80;99.90;;;;;;5073716;28;20288;-79
2022/05/01 04:14:12;;;;;;;;;;;11.70;99.90;;;;;;5073775;28;19905;-77
2022/05/01 04:16:37;;;;;;;;;;;11.70;99.90;;;;;;5074056;28;19971;-78
2022/05/01 04:19:03;;;;;;;;;;;11.70;99.90;;;;;;5073606;28;20006;-78
2022/05/01 04:21:28;;;;;;;;;;;11.50;99.90;;;;;;5073695;28;19927;-77
2022/05/01 04:23:54;;;;;;;;;;;11.20;99.90;;;;;;5055699;28;19991;-77
2022/05/01 04:26:20;;;;;;;;;;;11.10;99.90;;;;;;5074084;28;19904;-78
2022/05/01 04:31:30;;;;;;;;;;;11.10;99.90;;;;;;5073735;28;20433;-78
2022/05/01 04:33:55;;;;;;;;;;;10.80;99.90;;;;;;5073541;28;19936;-78
2022/05/01 04:36:21;;;;;;;;;;;10.70;99.90;;;;;;5055393;28;19992;-79
2022/05/01 04:38:46;;;;;;;;;;;10.90;99.90;;;;;;5073883;28;19900;-79
2022/05/01 04:41:16;;;;;;;;;;;11.00;99.90;;;;;;5073443;28;19962;-79
2022/05/01 04:43:42;;;;;;;;;;;11.20;99.90;;;;;;5073480;28;20356;-79
2022/05/01 04:46:08;;;;;;;;;;;11.30;99.90;;;;;;5073483;28;19991;-79
2022/05/01 04:48:33;;;;;;;;;;;11.60;99.90;;;;;;5073432;28;19912;-79
2022/05/01 04:51:00;;;;;;;;;;;11.80;99.90;;;;;;5073644;28;20003;-79
2022/05/01 04:53:26;;;;;;;;;;;11.90;99.90;;;;;;5073400;28;19912;-78
2022/05/01 04:55:54;;;;;;;;;;;12.00;99.90;;;;;;5055383;28;19904;-77
2022/05/01 04:58:23;;;;;;;;;;;12.10;99.90;;;;;;5073547;28;19908;-79
2022/05/01 05:00:49;;;;;;;;;;;12.00;99.90;;;;;;5073400;28;19953;-77
2022/05/01 05:03:14;;;;;;;;;;;11.90;99.90;;;;;;5073406;28;19908;-79
2022/05/01 05:05:40;;;;;;;;;;;11.90;99.90;;;;;;5073381;28;19912;-79
2022/05/01 05:10:50;;;;;;;;;;;12.10;99.90;;;;;;5073019;28;19920;-78
2022/05/01 05:13:21;;;;;;;;;;;12.10;99.90;;;;;;5073224;28;19911;-79
2022/05/01 05:15:47;;;;;;;;;;;12.00;99.90;;;;;;5073254;28;19905;-77
2022/05/01 05:18:13;;;;;;;;;;;12.00;99.90;;;;;;5073521;28;19910;-79
2022/05/01 05:20:39;;;;;;;;;;;11.90;99.90;;;;;;5073053;28;19915;-77
2022/05/01 05:23:04;;;;;;;;;;;11.80;99.90;;;;;;5073159;28;19992;-79
2022/05/01 05:25:30;;;;;;;;;;;11.90;99.90;;;;;;5073178;28;19904;-78
2022/05/01 05:27:56;;;;;;;;;;;12.00;99.90;;;;;;5073274;28;19934;-79
2022/05/01 05:30:21;;;;;;;;;;;12.10;99.90;;;;;;5073034;28;20335;-77
2022/05/01 05:32:47;;;;;;;;;;;12.30;99.90;;;;;;5073018;28;19904;-79
2022/05/01 05:35:12;;;;;;;;;;;12.50;99.90;;;;;;5072924;28;19930;-79
2022/05/01 05:37:38;;;;;;;;;;;12.50;99.90;;;;;;5054765;28;19920;-80
2022/05/01 05:40:04;;;;;;;;;;;12.50;99.90;;;;;;5073633;28;19909;-77
2022/05/01 05:42:29;;;;;;;;;;;12.60;99.90;;;;;;5076556;28;19904;-78
2022/05/01 05:44:55;;;;;;;;;;;12.70;99.90;;;;;;5058505;28;19995;-79
2022/05/01 05:47:21;;;;;;;;;;;12.70;99.90;;;;;;5076463;28;19911;-78
2022/05/01 05:49:47;;;;;;;;;;;12.80;99.90;;;;;;5076434;28;20398;-78
2022/05/01 05:52:12;;;;;;;;;;;12.90;99.90;;;;;;5076359;28;20323;-78
2022/05/01 05:54:39;;;;;;;;;;;12.90;99.90;;;;;;5076284;28;19916;-79
2022/05/01 05:57:05;;;;;;;;;;;13.00;99.90;;;;;;5076663;28;19905;-80
2022/05/01 05:59:30;;;;;;;;;;;13.10;99.90;;;;;;5058186;28;19962;-79
2022/05/01 06:01:56;;;;;;;;;;;13.30;99.90;;;;;;5076161;28;19957;-77
2022/05/01 06:04:22;;;;;;;;;;;13.40;99.90;;;;;;5076211;28;19904;-77
2022/05/01 06:06:47;;;;;;;;;;;13.50;99.90;;;;;;5058069;28;20010;-78
2022/05/01 06:09:13;;;;;;;;;;;13.50;99.90;;;;;;5076014;28;19908;-79
2022/05/01 06:11:38;;;;;;;;;;;13.60;99.90;;;;;;5075964;28;19904;-78
2022/05/01 06:14:04;;;;;;;;;;;13.70;99.90;;;;;;5057987;28;19905;-79
2022/05/01 06:16:31;;;;;;;;;;;13.90;99.90;;;;;;5058019;28;19904;-79
2022/05/01 06:18:58;;;;;;;;;;;14.00;99.90;;;;;;5075942;28;19908;-79
2022/05/01 06:21:24;;;;;;;;;;;14.20;99.90;;;;;;5057844;28;19995;-78
2022/05/01 06:23:49;;;;;;;;;;;14.30;99.90;;;;;;5075946;28;20000;-78
2022/05/01 06:26:15;;;;;;;;;;;14.40;99.90;;;;;;5057806;28;19905;-78
2022/05/01 06:28:41;;;;;;;;;;;14.60;99.90;;;;;;5075811;28;19973;-79
2022/05/01 06:31:06;;;;;;;;;;;14.70;99.90;;;;;;5075712;28;19930;-77
2022/05/01 06:33:34;;;;;;;;;;;14.80;99.90;;;;;;5075980;28;19930;-79
2022/05/01 06:36:00;;;;;;;;;;;15.00;99.90;;;;;;5075734;28;19911;-78
2022/05/01 06:38:26;;;;;;;;;;;14.80;99.90;;;;;;5075077;28;19916;-78
2022/05/01 06:40:52;;;;;;;;;;;14.70;99.90;;;;;;5075388;28;19908;-78
2022/05/01 06:43:18;;;;;;;;;;;14.50;99.90;;;;;;5057453;28;20292;-78
2022/05/01 06:45:43;;;;;;;;;;;14.10;99.90;;;;;;5075438;28;19950;-76
2022/05/01 06:48:10;;;;;;;;;;;14.20;99.90;;;;;;5075305;28;19955;-78
2022/05/01 06:50:36;;;;;;;;;;;14.20;99.90;;;;;;5057284;28;20400;-79
2022/05/01 06:53:01;;;;;;;;;;;14.50;99.90;;;;;;5074093;28;19944;-79
2022/05/01 06:55:27;;;;;;;;;;;15.40;99.90;;;;;;5075142;28;19990;-77
2022/05/01 06:57:53;;;;;;;;;;;16.60;99.90;;;;;;5057160;28;20287;-78
2022/05/01 07:00:19;;;;;;;;;;;17.70;96.50;;;;;;5075307;28;19919;-78
2022/05/01 07:02:48;;;;;;;;;;;18.20;92.40;;;;;;5074968;28;19935;-77
2022/05/01 07:05:14;;;;;;;;;;;18.10;89.20;;;;;;5074915;28;19911;-78
2022/05/01 07:07:39;;;;;;;;;;;18.30;91.60;;;;;;5074916;28;20307;-78
2022/05/01 07:10:06;;;;;;;;;;;18.40;90.60;;;;;;5074910;28;19954;-79
2022/05/01 07:12:31;;;;;;;;;;;18.50;90.50;;;;;;5074701;28;20424;-78
2022/05/01 07:14:57;;;;;;;;;;;18.70;88.60;;;;;;5074727;28;19948;-79
2022/05/01 07:17:22;;;;;;;;;;;18.40;87.00;;;;;;5075043;28;19912;-78
2022/05/01 07:19:49;;;;;;;;;;;17.60;86.80;;;;;;5074573;28;19913;-79
2022/05/01 07:22:16;;;;;;;;;;;17.60;89.00;;;;;;5074631;28;19911;-78
2022/05/01 07:24:41;;;;;;;;;;;17.10;89.60;;;;;;5074559;28;19958;-78
2022/05/01 07:27:07;;;;;;;;;;;17.00;88.90;;;;;;5056544;28;20310;-79
2022/05/01 07:29:32;;;;;;;;;;;17.30;89.60;;;;;;5074454;28;19911;-77
2022/05/01 07:31:58;;;;;;;;;;;17.40;88.00;;;;;;5074614;28;19908;-79
2022/05/01 07:34:24;;;;;;;;;;;17.50;86.00;;;;;;5056462;28;19953;-79
2022/05/01 07:36:49;;;;;;;;;;;17.00;85.40;;;;;;5074106;28;19916;-77
2022/05/01 07:39:15;;;;;;;;;;;17.10;83.70;;;;;;5074815;28;19963;-79
2022/05/01 07:41:41;;;;;;;;;;;16.90;85.00;;;;;;5074380;28;19904;-77
2022/05/01 07:44:08;;;;;;;;;;;17.50;82.90;;;;;;5074216;28;19987;-79
2022/05/01 07:46:34;;;;;;;;;;;17.20;82.80;;;;;;5056258;28;19954;-77
2022/05/01 07:49:00;;;;;;;;;;;17.20;82.50;;;;;;5074105;28;19904;-78
2022/05/01 07:51:25;;;;;;;;;;;17.60;80.60;;;;;;5074064;28;20276;-79
2022/05/01 07:53:53;;;;;;;;;;;17.80;77.00;;;;;;5074290;28;19912;-79
2022/05/01 07:56:19;;;;;;;;;;;18.20;76.10;;;;;;5073943;28;19954;-77
2022/05/01 07:58:44;;;;;;;;;;;18.40;72.50;;;;;;5073965;28;19911;-78
2022/05/01 08:01:10;;;;;;;;;;;18.20;74.10;;;;;;5074239;28;19910;-79
2022/05/01 08:06:22;;;;;;;;;;;18.60;72.80;;;;;;5073608;28;19950;-78
2022/05/01 08:08:48;;;;;;;;;;;18.60;72.20;;;;;;5073901;28;20364;-78
2022/05/01 08:11:13;;;;;;;;;;;19.10;70.90;;;;;;5073797;28;20022;-79
2022/05/01 08:13:39;;;;;;;;;;;19.50;67.30;;;;;;5073819;28;19944;-79
2022/05/01 08:16:04;;;;;;;;;;;20.10;65.00;;;;;;5073924;28;20265;-78
2022/05/01 08:21:16;;;;;;;;;;;19.90;62.20;;;;;;5073644;28;20017;-80
2022/05/01 08:23:41;;;;;;;;;;;20.30;61.80;;;;;;5073698;28;19919;-77
2022/05/01 08:26:10;;;;;;;;;;;20.50;60.10;;;;;;5073855;28;19908;-80
2022/05/01 08:28:39;;;;;;;;;;;20.80;61.60;;;;;;5073671;28;19904;-78
2022/05/01 08:31:05;;;;;;;;;;;20.70;58.50;;;;;;5073965;28;19912;-78
2022/05/01 08:33:31;;;;;;;;;;;20.70;59.70;;;;;;5073586;28;19950;-78
2022/05/01 08:35:57;;;;;;;;;;;21.10;59.00;;;;;;5073537;28;19904;-78
2022/05/01 08:38:22;;;;;;;;;;;21.60;59.50;;;;;;5073132;28;19955;-78
2022/05/01 08:40:50;;;;;;;;;;;22.50;56.00;;;;;;5055428;28;19920;-80
2022/05/01 08:43:17;;;;;;;;;;;22.60;54.60;;;;;;5073608;28;19909;-79
2022/05/01 08:46:01;;;;;;;;;;;22.60;53.40;;;;;;5055537;28;19904;-79
2022/05/01 08:48:34;;;;;;;;;;;22.70;53.70;;;;;;5073436;28;19905;-78
2022/05/01 08:51:01;;;;;;;;;;;23.10;54.30;;;;;;5073541;28;19908;-80
2022/05/01 08:53:28;;;;;;;;;;;22.90;52.70;;;;;;5073420;28;20003;-78
2022/05/01 08:55:54;;;;;;;;;;;23.60;52.60;;;;;;5073319;28;20362;-78
2022/05/01 08:58:20;;;;;;;;;;;23.70;50.90;;;;;;5073743;28;19904;-78
2022/05/01 09:00:49;;;;;;;;;;;23.00;51.90;;;;;;5055221;28;20006;-78
2022/05/01 09:03:18;;;;;;;;;;;23.20;50.80;;;;;;5055282;28;19908;-79
2022/05/01 09:05:43;;;;;;;;;;;24.90;49.50;;;;;;5073242;28;19904;-78
2022/05/01 09:08:09;;;;;;;;;;;25.00;48.80;;;;;;5073241;28;20368;-80
2022/05/01 09:10:35;;;;;;;;;;;25.50;46.50;;;;;;5073179;28;19904;-80
2022/05/01 09:13:01;;;;;;;;;;;25.50;46.10;;;;;;5073178;28;19919;-81
2022/05/01 09:15:37;;;;;;;;;;;26.20;47.30;;;;;;5056685;28;19999;-79
2022/05/01 09:18:04;;;;;;;;;;;27.20;46.10;;;;;;5077468;28;19962;-78
2022/05/01 09:20:30;;;;;;;;;;;27.80;43.70;;;;;;5077046;28;19908;-79
2022/05/01 09:22:57;;;;;;;;;;;28.20;43.40;;;;;;5076880;28;20038;-78
2022/05/01 09:25:23;;;;;;;;;;;29.20;42.30;;;;;;5076817;28;19904;-79
2022/05/01 09:27:52;;;;;;;;;;;28.90;42.10;;;;;;5076755;28;19908;-79
2022/05/01 09:30:22;;;;;;;;;;;28.80;42.10;;;;;;5077166;28;19908;-79
2022/05/01 09:32:48;;;;;;;;;;;28.10;41.10;;;;;;5077037;28;19904;-79
2022/05/01 09:35:22;;;;;;;;;;;28.00;40.60;;;;;;5076642;28;19944;-79
2022/05/01 09:37:48;;;;;;;;;;;27.50;41.40;;;;;;5076392;28;20269;-78
2022/05/01 09:40:30;;;;;;;;;;;27.90;41.00;;;;;;5076472;28;19915;-78
2022/05/01 09:42:56;;;;;;;;;;;28.10;41.70;;;;;;5076512;28;19905;-79
2022/05/01 09:45:29;;;;;;;;;;;27.90;41.00;;;;;;5058684;28;19921;-78
2022/05/01 09:47:54;;;;;;;;;;;26.20;40.50;;;;;;5076544;28;19957;-79
2022/05/01 09:50:37;;;;;;;;;;;27.50;41.20;;;;;;5076486;28;19909;-80
2022/05/01 09:53:03;;;;;;;;;;;29.70;41.20;;;;;;5076796;28;20288;-80
2022/05/01 09:55:29;;;;;;;;;;;29.50;39.00;;;;;;5076309;28;19915;-78
2022/05/01 09:58:08;;;;;;;;;;;30.70;39.40;;;;;;5076275;28;20283;-78
2022/05/01 10:00:35;;;;;;;;;;;30.70;36.40;;;;;;5076136;28;19908;-80
2022/05/01 10:03:18;;;;;;;;;;;32.30;37.00;;;;;;5058214;28;20284;-80
2022/05/01 10:05:44;;;;;;;;;;;32.60;36.30;;;;;;5076278;28;20364;-80
2022/05/01 10:08:11;;;;;;;;;;;34.70;34.30;;;;;;5076022;28;20345;-79
2022/05/01 10:10:37;;;;;;;;;;;34.10;33.80;;;;;;5058007;28;19983;-76
2022/05/01 10:13:03;;;;;;;;;;;33.70;33.10;;;;;;5075997;28;19940;-78
2022/05/01 10:15:28;;;;;;;;;;;35.70;33.00;;;;;;5075885;28;19970;-79
2022/05/01 10:17:54;;;;;;;;;;;35.50;30.80;;;;;;5075891;28;19957;-76
2022/05/01 10:20:20;;;;;;;;;;;35.70;30.90;;;;;;5075741;28;19915;-77
2022/05/01 10:22:46;;;;;;;;;;;36.60;31.80;;;;;;5075852;28;19905;-80
2022/05/01 10:25:16;;;;;;;;;;;36.80;30.40;;;;;;5075764;28;19905;-78
2022/05/01 10:28:12;;;;;;;;;;;37.90;31.00;;;;;;5075850;28;19973;-77
2022/05/01 10:33:44;;;;;;;;;;;38.90;29.70;;;;;;5075387;28;19912;-78
2022/05/01 10:36:16;;;;;;;;;;;40.40;29.80;;;;;;5075925;28;20387;-77
2022/05/01 10:38:44;;;;;;;;;;;40.30;29.20;;;;;;5075508;28;19916;-76
2022/05/01 10:41:11;;;;;;;;;;;40.00;29.00;;;;;;5075379;28;19935;-77
2022/05/01 10:43:37;;;;;;;;;;;39.60;29.10;;;;;;5075467;28;20011;-77
2022/05/01 10:46:05;;;;;;;;;;;41.20;29.20;;;;;;5057403;28;20331;-79
2022/05/01 10:48:35;;;;;;;;;;;41.50;29.10;;;;;;5075278;28;19911;-76
2022/05/01 10:51:19;;;;;;;;;;;39.40;28.50;;;;;;5075263;28;20330;-77
2022/05/01 10:54:05;;;;;;;;;;;39.40;29.30;;;;;;5075201;28;19904;-79
2022/05/01 10:56:34;;;;;;;;;;;40.80;28.70;;;;;;5054506;28;19905;-78
2022/05/01 10:59:19;;;;;;;;;;;41.40;28.80;;;;;;5075090;28;19904;-79
2022/05/01 11:01:54;;;;;;;;;;;41.40;28.50;;;;;;5075383;28;20357;-78
2022/05/01 11:04:21;;;;;;;;;;;41.50;28.50;;;;;;5074981;28;19904;-79
2022/05/01 11:06:50;;;;;;;;;;;41.30;28.30;;;;;;5074969;28;19904;-78
2022/05/01 11:09:19;;;;;;;;;;;39.90;28.80;;;;;;5056938;28;19971;-78
2022/05/01 11:11:45;;;;;;;;;;;40.10;28.60;;;;;;5075075;28;19905;-76
2022/05/01 11:14:12;;;;;;;;;;;41.70;29.00;;;;;;5075100;28;19912;-77
2022/05/01 11:16:52;;;;;;;;;;;40.70;28.20;;;;;;5056826;28;20285;-78
2022/05/01 11:19:17;;;;;;;;;;;39.40;29.10;;;;;;5075086;28;19904;-78
2022/05/01 11:21:49;;;;;;;;;;;37.60;29.10;;;;;;5075015;28;20262;-79
2022/05/01 11:24:15;;;;;;;;;;;38.10;28.90;;;;;;5074902;28;20337;-76
2022/05/01 11:26:59;;;;;;;;;;;36.80;29.50;;;;;;5074518;28;19912;-78
2022/05/01 11:29:25;;;;;;;;;;;36.70;28.90;;;;;;5074476;28;20364;-78
2022/05/01 11:31:52;;;;;;;;;;;37.40;29.40;;;;;;5056530;28;19964;-76
2022/05/01 11:34:21;;;;;;;;;;;38.20;29.30;;;;;;5074536;28;19904;-77
2022/05/01 11:36:53;;;;;;;;;;;36.60;28.70;;;;;;5074076;28;19986;-76
2022/05/01 11:39:22;;;;;;;;;;;37.00;29.10;;;;;;5073615;28;20435;-77
2022/05/01 11:42:00;;;;;;;;;;;36.00;29.00;;;;;;5074364;28;19904;-78
2022/05/01 11:44:27;;;;;;;;;;;37.00;28.90;;;;;;5074295;28;20431;-77
2022/05/01 11:46:52;;;;;;;;;;;37.60;29.00;;;;;;5074104;28;20380;-78
2022/05/01 11:49:18;;;;;;;;;;;35.90;29.00;;;;;;5074096;28;19908;-77
2022/05/01 11:51:45;;;;;;;;;;;34.40;30.00;;;;;;5056133;28;19905;-81
2022/05/01 11:54:10;;;;;;;;;;;33.60;30.10;;;;;;5074217;28;19911;-78
2022/05/01 12:02:25;;;;;;;;;;;37.20;29.80;;;;;;5073694;28;19965;-79
2022/05/01 12:04:51;;;;;;;;;;;38.20;28.80;;;;;;5073930;28;20003;-79
2022/05/01 12:07:18;;;;;;;;;;;37.00;28.60;;;;;;5055920;28;19944;-80
2022/05/01 12:09:44;;;;;;;;;;;36.60;28.80;;;;;;5073885;28;20386;-78
2022/05/01 12:12:12;;;;;;;;;;;38.80;28.80;;;;;;5073777;28;19944;-77
2022/05/01 12:14:38;;;;;;;;;;;41.40;28.40;;;;;;5073822;28;19904;-76
2022/05/01 12:17:08;;;;;;;;;;;41.90;27.60;;;;;;5073805;28;19905;-77
2022/05/01 12:19:35;;;;;;;;;;;39.20;27.50;;;;;;5073706;28;20029;-76
2022/05/01 12:22:00;;;;;;;;;;;38.70;28.40;;;;;;5073739;28;19910;-76
2022/05/01 12:24:26;;;;;;;;;;;40.30;28.30;;;;;;5073793;28;20006;-78
2022/05/01 12:26:52;;;;;;;;;;;42.30;27.90;;;;;;5073679;28;19994;-76
2022/05/01 12:29:18;;;;;;;;;;;43.20;27.30;;;;;;5074370;28;20040;-78
2022/05/01 12:32:14;;;;;;;;;;;42.00;27.40;;;;;;5073619;28;19904;-77
2022/05/01 12:34:54;;;;;;;;;;;42.30;27.80;;;;;;5048950;28;19905;-77
2022/05/01 12:37:21;;;;;;;;;;;41.00;27.60;;;;;;5073552;28;19917;-76
2022/05/01 12:39:59;;;;;;;;;;;39.80;27.60;;;;;;5055492;28;20369;-78
2022/05/01 12:45:17;;;;;;;;;;;40.50;28.00;;;;;;5073687;28;19927;-76
2022/05/01 12:47:45;;;;;;;;;;;39.60;28.50;;;;;;5073602;28;19935;-77
2022/05/01 12:50:23;;;;;;;;;;;39.30;28.60;;;;;;5058236;28;19910;-76
2022/05/01 12:52:54;;;;;;;;;;;39.60;28.20;;;;;;5059236;28;20391;-78
2022/05/01 12:55:21;;;;;;;;;;;39.40;27.80;;;;;;5077235;28;19944;-77
2022/05/01 12:57:57;;;;;;;;;;;38.10;28.10;;;;;;5077415;28;20383;-76
2022/05/01 13:00:32;;;;;;;;;;;39.60;28.20;;;;;;5077235;28;19956;-77
2022/05/01 13:03:19;;;;;;;;;;;39.30;28.50;;;;;;5077292;28;19966;-77
2022/05/01 13:05:54;;;;;;;;;;;39.30;28.20;;;;;;5057910;28;19905;-77
2022/05/01 13:08:20;;;;;;;;;;;39.60;28.00;;;;;;5059211;28;19911;-78
2022/05/01 13:11:04;;;;;;;;;;;40.60;27.30;;;;;;5077411;28;19912;-76
2022/05/01 13:13:40;;;;;;;;;;;40.30;26.80;;;;;;5077159;28;19911;-77
2022/05/01 13:16:06;;;;;;;;;;;39.80;27.60;;;;;;5077088;28;20038;-78
2022/05/01 13:18:31;;;;;;;;;;;39.40;27.00;;;;;;5077367;28;19942;-76
2022/05/01 13:20:57;;;;;;;;;;;40.20;27.20;;;;;;5058980;28;19961;-77
2022/05/01 13:23:23;;;;;;;;;;;41.60;27.00;;;;;;5058955;28;19961;-78
2022/05/01 13:25:48;;;;;;;;;;;40.90;26.90;;;;;;5077033;28;19909;-75
2022/05/01 13:28:14;;;;;;;;;;;40.40;27.50;;;;;;5076845;28;20413;-77
2022/05/01 13:30:39;;;;;;;;;;;39.10;27.10;;;;;;5076779;28;19912;-76
2022/05/01 13:33:05;;;;;;;;;;;39.20;27.50;;;;;;5077132;28;20003;-76
2022/05/01 13:35:30;;;;;;;;;;;40.00;26.80;;;;;;5076641;28;20361;-75
2022/05/01 13:37:56;;;;;;;;;;;40.30;26.40;;;;;;5076436;28;19917;-75
2022/05/01 13:45:50;;;;;;;;;;;37.80;27.30;;;;;;5076655;28;19950;-79
2022/05/01 13:48:16;;;;;;;;;;;36.40;27.90;;;;;;5076459;28;20002;-79
2022/05/01 13:50:42;;;;;;;;;;;36.60;28.10;;;;;;5076445;28;19911;-79
2022/05/01 13:53:13;;;;;;;;;;;36.50;28.70;;;;;;5076447;28;20314;-79
2022/05/01 13:55:39;;;;;;;;;;;34.80;28.40;;;;;;5076739;28;20296;-78
2022/05/01 13:58:04;;;;;;;;;;;34.60;29.40;;;;;;5076365;28;19923;-79
2022/05/01 14:00:30;;;;;;;;;;;33.70;29.20;;;;;;5075675;28;20283;-80
2022/05/01 14:02:56;;;;;;;;;;;33.40;29.30;;;;;;5076184;28;19905;-79
2022/05/01 14:05:21;;;;;;;;;;;33.70;29.40;;;;;;5076220;28;20375;-78
2022/05/01 14:07:47;;;;;;;;;;;33.70;29.30;;;;;;5076077;28;19904;-79
2022/05/01 14:10:13;;;;;;;;;;;33.60;29.50;;;;;;5076032;28;20369;-78
2022/05/01 14:12:38;;;;;;;;;;;34.20;29.30;;;;;;5076011;28;19995;-78
2022/05/01 14:15:04;;;;;;;;;;;35.30;29.10;;;;;;5076077;28;20280;-79
2022/05/01 14:17:30;;;;;;;;;;;34.60;29.30;;;;;;5057913;28;19912;-77
2022/05/01 14:19:56;;;;;;;;;;;34.30;29.00;;;;;;5075827;28;19908;-78
2022/05/01 14:22:22;;;;;;;;;;;33.70;29.30;;;;;;5076041;28;19904;-78
2022/05/01 14:24:50;;;;;;;;;;;34.60;29.20;;;;;;5057823;28;19912;-79
2022/05/01 14:27:16;;;;;;;;;;;34.20;29.10;;;;;;5075767;28;19911;-77
2022/05/01 14:29:41;;;;;;;;;;;33.10;29.90;;;;;;5057736;28;19995;-79
2022/05/01 14:32:26;;;;;;;;;;;32.90;30.00;;;;;;5076042;28;19904;-80
2022/05/01 14:34:57;;;;;;;;;;;32.60;29.60;;;;;;5057624;28;20007;-77
2022/05/01 14:37:42;;;;;;;;;;;33.10;29.80;;;;;;5075377;28;20001;-79
2022/05/01 14:40:09;;;;;;;;;;;33.20;29.80;;;;;;5075636;28;19909;-78
2022/05/01 14:42:36;;;;;;;;;;;32.90;29.80;;;;;;5057477;28;19904;-79
2022/05/01 14:45:05;;;;;;;;;;;32.80;30.10;;;;;;5075385;28;19904;-78
2022/05/01 14:47:35;;;;;;;;;;;31.20;30.30;;;;;;5075249;28;20415;-79
2022/05/01 14:50:01;;;;;;;;;;;30.70;30.80;;;;;;5075509;28;20494;-79
2022/05/01 14:52:28;;;;;;;;;;;32.00;30.50;;;;;;5075238;28;19904;-80
2022/05/01 14:54:55;;;;;;;;;;;31.70;30.10;;;;;;5075315;28;19911;-78
2022/05/01 14:57:22;;;;;;;;;;;30.40;30.00;;;;;;5075113;28;19953;-80
2022/05/01 15:08:10;;;;;;;;;;;31.40;29.80;;;;;;5075156;28;20046;-79
2022/05/01 15:10:40;;;;;;;;;;;31.70;30.00;;;;;;5056947;28;19961;-80